createdAt,value
2023-05-09T00:00:37.147Z,101003.75
2023-05-09T00:03:22.644Z,101012.44
2023-05-09T00:06:09.060Z,101012.44
2023-05-09T00:08:55.250Z,101009.84
2023-05-09T00:11:40.984Z,101004.63
2023-05-09T00:14:26.290Z,100996.78
2023-05-09T00:17:14.598Z,100988.97
2023-05-09T00:20:01.660Z,100993.31
2023-05-09T00:22:47.050Z,100996.78
2023-05-09T00:25:32.670Z,101008.94
2023-05-09T00:28:18.424Z,101001.94
2023-05-09T00:31:04.500Z,101008.91
2023-05-09T00:33:49.866Z,101018.47
2023-05-09T00:36:35.312Z,101015.81
2023-05-09T00:39:20.935Z,101004.53
2023-05-09T00:42:06.753Z,101005.38
2023-05-09T00:44:52.247Z,101018.41
2023-05-09T00:47:38.545Z,101010.59
2023-05-09T00:50:24.792Z,101018.41
2023-05-09T00:53:10.516Z,101017.53
2023-05-09T00:55:57.823Z,101020.16
2023-05-09T00:58:44.123Z,101015.81
2023-05-09T01:01:29.848Z,101022.78
2023-05-09T01:04:15.463Z,101021.94
2023-05-09T01:07:09.551Z,101020.16
2023-05-09T01:10:19.882Z,101022.75
2023-05-09T01:13:20.501Z,101028.81
2023-05-09T01:16:28.109Z,101025.31
2023-05-09T01:19:38.184Z,101027.91
2023-05-09T01:22:30.356Z,101029.63
2023-05-09T01:25:27.957Z,101025.25
2023-05-09T01:28:32.226Z,101026.09
2023-05-09T01:31:17.581Z,101023.47
2023-05-09T01:34:05.844Z,101025.19
2023-05-09T01:36:52.427Z,101026.94
2023-05-09T01:39:41.400Z,101022.53
2023-05-09T01:42:31.194Z,101025.13
2023-05-09T01:45:18.616Z,101020.72
2023-05-09T01:48:04.720Z,101014.63
2023-05-09T01:50:50.464Z,101016.34
2023-05-09T01:53:36.378Z,101012.81
2023-05-09T01:56:23.663Z,101015.38
2023-05-09T01:59:13.657Z,101014.47
2023-05-09T02:01:59.665Z,101010.13
2023-05-09T02:04:46.773Z,101008.34
2023-05-09T02:07:33.333Z,101003.09
2023-05-09T02:10:21.351Z,101000.47
2023-05-09T02:13:07.198Z,100999.59
2023-05-09T02:15:53.048Z,100984.78
2023-05-09T02:18:38.502Z,100997.75
2023-05-09T02:21:25.886Z,100995.97
2023-05-09T02:24:12.429Z,100994.25
2023-05-09T02:26:57.874Z,100991.69
2023-05-09T02:29:49.477Z,100989.97
2023-05-09T02:32:38.839Z,100995.16
2023-05-09T02:35:27.480Z,100990.81
2023-05-09T02:38:14.505Z,100983.88
2023-05-09T02:40:59.914Z,100984.75
2023-05-09T02:43:46.001Z,100977.81
2023-05-09T02:46:31.913Z,100988.22
2023-05-09T02:49:31.513Z,100984.78
2023-05-09T02:52:18.724Z,100985.66
2023-05-09T02:55:04.784Z,100983.03
2023-05-09T02:58:05.355Z,100977.81
2023-05-09T03:00:58.382Z,100981.25
2023-05-09T03:03:44.266Z,100977.78
2023-05-09T03:06:30.073Z,100980.41
2023-05-09T03:09:15.556Z,100980.41
2023-05-09T03:12:01.130Z,100975.19
2023-05-09T03:14:47.081Z,100981.25
2023-05-09T03:17:32.511Z,100982.19
2023-05-09T03:20:18.258Z,100983.00
2023-05-09T03:23:03.961Z,100973.44
2023-05-09T03:25:50.424Z,100978.66
2023-05-09T03:28:36.208Z,100973.47
2023-05-09T03:31:23.691Z,100979.56
2023-05-09T03:34:15.066Z,100972.59
2023-05-09T03:37:01.964Z,100976.03
2023-05-09T03:39:48.799Z,100967.38
2023-05-09T03:42:34.818Z,100971.72
2023-05-09T03:45:22.244Z,100976.94
2023-05-09T03:48:09.822Z,100973.50
2023-05-09T03:51:00.119Z,100969.16
2023-05-09T03:53:48.047Z,100963.94
2023-05-09T03:56:34.158Z,100966.50
2023-05-09T03:59:20.842Z,100965.59
2023-05-09T04:02:06.468Z,100973.38
2023-05-09T04:04:52.823Z,100960.34
2023-05-09T04:07:40.521Z,100962.13
2023-05-09T04:10:26.222Z,100956.03
2023-05-09T04:13:15.402Z,100956.09
2023-05-09T04:16:01.817Z,100955.31
2023-05-09T04:18:49.897Z,100954.50
2023-05-09T04:21:35.318Z,100955.38
2023-05-09T04:24:22.219Z,100950.19
2023-05-09T04:27:08.569Z,100961.50
2023-05-09T04:29:55.159Z,100951.97
2023-05-09T04:32:45.666Z,100950.28
2023-05-09T04:35:30.825Z,100955.50
2023-05-09T04:38:16.785Z,100958.97
2023-05-09T04:41:02.631Z,100957.28
2023-05-09T04:43:48.161Z,100959.91
2023-05-09T04:46:34.238Z,100950.38
2023-05-09T04:49:19.854Z,100947.78
2023-05-09T04:52:07.036Z,100951.28
2023-05-09T04:54:52.504Z,100943.47
2023-05-09T04:57:40.441Z,100936.56
2023-05-09T05:00:26.228Z,100940.94
2023-05-09T05:03:12.429Z,100934.88
2023-05-09T05:05:58.108Z,100933.97
2023-05-09T05:08:45.056Z,100934.88
2023-05-09T05:11:30.381Z,100926.22
2023-05-09T05:14:16.283Z,100931.44
2023-05-09T05:17:02.206Z,100941.00
2023-05-09T05:19:47.895Z,100934.91
2023-05-09T05:22:35.969Z,100937.56
2023-05-09T05:25:22.297Z,100930.59
2023-05-09T05:28:10.093Z,100931.50
2023-05-09T05:30:57.056Z,100925.41
2023-05-09T05:33:42.482Z,100921.94
2023-05-09T05:36:27.653Z,100927.16
2023-05-09T05:39:13.200Z,100921.94
2023-05-09T05:41:58.406Z,100923.69
2023-05-09T05:44:43.975Z,100924.56
2023-05-09T05:47:36.046Z,100922.84
2023-05-09T05:50:22.068Z,100923.72
2023-05-09T05:53:07.683Z,100917.63
2023-05-09T05:55:53.956Z,100914.19
2023-05-09T05:58:39.628Z,100912.44
2023-05-09T06:01:26.414Z,100917.63
2023-05-09T06:04:11.839Z,100917.69
2023-05-09T06:06:57.162Z,100916.81
2023-05-09T06:09:42.851Z,100914.22
2023-05-09T06:12:28.822Z,100914.25
2023-05-09T06:15:14.422Z,100916.00
2023-05-09T06:18:03.977Z,100914.25
2023-05-09T06:20:49.642Z,100915.97
2023-05-09T06:23:38.033Z,100911.63
2023-05-09T06:26:26.365Z,100916.00
2023-05-09T06:29:11.915Z,100910.78
2023-05-09T06:31:57.620Z,100912.50
2023-05-09T06:34:43.430Z,100909.88
2023-05-09T06:37:33.514Z,100908.16
2023-05-09T06:40:19.292Z,100908.13
2023-05-09T06:43:05.137Z,100903.78
2023-05-09T06:45:50.761Z,100898.53
2023-05-09T06:48:36.221Z,100899.34
2023-05-09T06:51:21.923Z,100893.22
2023-05-09T06:54:07.299Z,100892.34
2023-05-09T06:56:52.808Z,100881.88
2023-05-09T06:59:38.815Z,100886.13
2023-05-09T07:02:24.219Z,100878.22
2023-05-09T07:05:10.765Z,100863.38
2023-05-09T07:07:57.003Z,100860.72
2023-05-09T07:10:42.614Z,100865.00
2023-05-09T07:13:28.048Z,100860.63
2023-05-09T07:16:13.690Z,100857.09
2023-05-09T07:18:59.410Z,100866.63
2023-05-09T07:21:45.059Z,100856.22
2023-05-09T07:24:30.611Z,100858.88
2023-05-09T07:27:16.484Z,100858.00
2023-05-09T07:30:06.180Z,100860.59
2023-05-09T07:32:51.986Z,100863.22
2023-05-09T07:35:37.328Z,100858.00
2023-05-09T07:38:22.601Z,100864.06
2023-05-09T07:41:08.145Z,100864.00
2023-05-09T07:43:53.700Z,100870.03
2023-05-09T07:46:40.984Z,100865.59
2023-05-09T07:49:26.395Z,100860.31
2023-05-09T07:52:11.828Z,100861.16
2023-05-09T07:54:57.433Z,100854.13
2023-05-09T07:57:43.300Z,100851.47
2023-05-09T08:00:28.860Z,100850.47
2023-05-09T08:03:14.385Z,100846.06
2023-05-09T08:05:59.974Z,100839.06
2023-05-09T08:08:45.749Z,100838.31
2023-05-09T08:11:34.580Z,100835.75
2023-05-09T08:14:19.962Z,100845.25
2023-05-09T08:17:05.230Z,100849.56
2023-05-09T08:19:50.603Z,100842.56
2023-05-09T08:22:35.968Z,100840.84
2023-05-09T08:25:21.464Z,100846.06
2023-05-09T08:28:06.844Z,100835.56
2023-05-09T08:30:52.367Z,100839.97
2023-05-09T08:33:39.871Z,100833.88
2023-05-09T08:36:26.936Z,100836.50
2023-05-09T08:39:12.362Z,100833.94
2023-05-09T08:41:59.794Z,100838.22
2023-05-09T08:44:45.035Z,100832.91
2023-05-09T08:47:30.475Z,100826.81
2023-05-09T08:50:17.610Z,100826.75
2023-05-09T08:53:03.593Z,100821.59
2023-05-09T08:55:51.002Z,100819.88
2023-05-09T08:58:37.176Z,100818.13
2023-05-09T09:01:23.579Z,100818.91
2023-05-09T09:04:11.985Z,100822.41
2023-05-09T09:06:58.226Z,100809.38
2023-05-09T09:09:49.193Z,100805.06
2023-05-09T09:12:35.823Z,100805.91
2023-05-09T09:15:22.940Z,100812.88
2023-05-09T09:18:11.655Z,100801.56
2023-05-09T09:21:03.409Z,100804.19
2023-05-09T09:23:49.739Z,100800.81
2023-05-09T09:26:35.197Z,100802.56
2023-05-09T09:29:21.177Z,100802.53
2023-05-09T09:32:07.443Z,100797.28
2023-05-09T09:35:06.992Z,100785.06
2023-05-09T09:38:01.730Z,100783.28
2023-05-09T09:40:58.239Z,100781.41
2023-05-09T09:43:46.305Z,100779.50
2023-05-09T09:46:45.044Z,100768.91
2023-05-09T09:49:30.397Z,100766.28
2023-05-09T09:52:24.907Z,100762.66
2023-05-09T09:55:11.275Z,100759.03
2023-05-09T09:57:56.774Z,100765.97
2023-05-09T10:00:42.187Z,100765.81
2023-05-09T10:03:36.065Z,100760.50
2023-05-09T10:06:21.476Z,100754.38
2023-05-09T10:09:06.776Z,100759.44
2023-05-09T10:11:53.279Z,100753.19
2023-05-09T10:14:42.281Z,100750.47
2023-05-09T10:17:31.357Z,100755.50
2023-05-09T10:20:18.194Z,100753.81
2023-05-09T10:23:04.472Z,100746.88
2023-05-09T10:25:58.860Z,100758.34
2023-05-09T10:28:49.179Z,100750.56
2023-05-09T10:31:39.390Z,100752.41
2023-05-09T10:34:26.369Z,100751.50
2023-05-09T10:37:12.858Z,100751.41
2023-05-09T10:40:01.744Z,100749.50
2023-05-09T10:42:47.662Z,100756.28
2023-05-09T10:45:34.210Z,100743.94
2023-05-09T10:48:20.306Z,100730.69
2023-05-09T10:51:06.560Z,100734.88
2023-05-09T10:53:52.210Z,100738.19
2023-05-09T10:56:39.933Z,100726.81
2023-05-09T10:59:42.943Z,100727.75
2023-05-09T11:02:32.922Z,100716.31
2023-05-09T11:05:20.222Z,100723.03
2023-05-09T11:08:26.286Z,100721.06
2023-05-09T11:11:25.500Z,100715.75
2023-05-09T11:14:38.576Z,100708.56
2023-05-09T11:17:24.730Z,100699.50
2023-05-09T11:20:10.520Z,100700.94
2023-05-09T11:22:57.590Z,100695.22
2023-05-09T11:25:46.594Z,100688.69
2023-05-09T11:28:34.473Z,100696.88
2023-05-09T11:31:20.207Z,100698.03
2023-05-09T11:34:06.475Z,100701.00
2023-05-09T11:37:07.875Z,100695.19
2023-05-09T11:39:58.868Z,100695.44
2023-05-09T11:42:50.078Z,100698.44
2023-05-09T11:45:35.715Z,100695.41
2023-05-09T11:48:22.828Z,100694.47
2023-05-09T11:51:16.127Z,100688.94
2023-05-09T11:54:01.687Z,100698.06
2023-05-09T11:56:47.359Z,100694.97
2023-05-09T11:59:36.674Z,100693.66
2023-05-09T12:02:22.937Z,100691.91
2023-05-09T12:05:10.639Z,100692.41
2023-05-09T12:08:01.441Z,100691.94
2023-05-09T12:10:47.717Z,100693.72
2023-05-09T12:13:33.056Z,100695.66
2023-05-09T12:16:19.906Z,100698.66
2023-05-09T12:19:05.761Z,100701.22
2023-05-09T12:21:59.063Z,100702.16
2023-05-09T12:24:44.550Z,100691.25
2023-05-09T12:27:30.193Z,100693.75
2023-05-09T12:30:16.288Z,100694.38
2023-05-09T12:33:01.803Z,100686.19
2023-05-09T12:35:48.617Z,100683.81
2023-05-09T12:38:34.569Z,100691.69
2023-05-09T12:41:34.923Z,100686.53
2023-05-09T12:44:25.101Z,100689.38
2023-05-09T12:47:12.689Z,100690.75
2023-05-09T12:49:59.433Z,100684.94
2023-05-09T12:53:02.002Z,100688.16
2023-05-09T12:55:48.672Z,100684.25
2023-05-09T12:58:34.201Z,100676.84
2023-05-09T13:01:21.356Z,100672.44
2023-05-09T13:04:07.665Z,100677.06
2023-05-09T13:06:58.707Z,100677.91
2023-05-09T13:10:00.970Z,100673.91
2023-05-09T13:12:48.537Z,100680.09
2023-05-09T13:15:33.928Z,100682.03
2023-05-09T13:18:20.305Z,100678.47
2023-05-09T13:21:05.686Z,100674.91
2023-05-09T13:23:52.184Z,100676.25
2023-05-09T13:26:37.917Z,100673.66
2023-05-09T13:29:23.287Z,100668.69
2023-05-09T13:32:08.861Z,100667.50
2023-05-09T13:34:54.571Z,100663.53
2023-05-09T13:37:39.848Z,100654.75
2023-05-09T13:40:25.468Z,100662.88
2023-05-09T13:43:11.064Z,100668.41
2023-05-09T13:45:56.581Z,100675.34
2023-05-09T13:48:42.061Z,100667.16
2023-05-09T13:51:29.317Z,100665.09
2023-05-09T13:54:15.914Z,100665.72
2023-05-09T13:57:05.139Z,100657.25
2023-05-09T13:59:50.472Z,100654.84
2023-05-09T14:02:36.038Z,100665.66
2023-05-09T14:05:21.657Z,100657.97
2023-05-09T14:08:08.238Z,100656.53
2023-05-09T14:10:53.651Z,100660.00
2023-05-09T14:13:38.795Z,100663.94
2023-05-09T14:16:24.194Z,100665.72
2023-05-09T14:19:09.591Z,100667.88
2023-05-09T14:21:55.114Z,100666.09
2023-05-09T14:24:40.924Z,100668.25
2023-05-09T14:27:26.456Z,100669.50
2023-05-09T14:30:13.072Z,100675.94
2023-05-09T14:32:58.771Z,100669.53
2023-05-09T14:35:44.039Z,100683.69
2023-05-09T14:38:29.827Z,100697.03
2023-05-09T14:41:15.378Z,100704.81
2023-05-09T14:44:01.030Z,100706.34
2023-05-09T14:46:46.362Z,100708.41
2023-05-09T14:49:32.019Z,100707.59
2023-05-09T14:52:17.783Z,100706.69
2023-05-09T14:55:03.630Z,100683.84
2023-05-09T14:57:49.846Z,100684.16
2023-05-09T15:00:35.328Z,100682.06
2023-05-09T15:03:20.688Z,100684.66
2023-05-09T15:06:06.272Z,100678.97
2023-05-09T15:08:52.279Z,100680.91
2023-05-09T15:11:47.637Z,100679.59
2023-05-09T15:14:34.106Z,100668.69
2023-05-09T15:17:22.882Z,100674.78
2023-05-09T15:20:08.868Z,100664.38
2023-05-09T15:22:54.199Z,100665.66
2023-05-09T15:25:42.865Z,100673.16
2023-05-09T15:28:28.594Z,100670.50
2023-05-09T15:31:14.575Z,100653.78
2023-05-09T15:34:00.685Z,100657.94
2023-05-09T15:36:46.373Z,100658.97
2023-05-09T15:39:34.746Z,100653.69
2023-05-09T15:42:20.282Z,100653.03
2023-05-09T15:45:06.580Z,100651.63
2023-05-09T15:47:52.154Z,100650.88
2023-05-09T15:50:38.002Z,100652.94
2023-05-09T15:53:23.488Z,100643.03
2023-05-09T15:56:09.338Z,100648.63
2023-05-09T15:58:55.076Z,100641.34
2023-05-09T16:01:40.489Z,100639.16
2023-05-09T16:04:26.107Z,100634.75
2023-05-09T16:07:11.672Z,100634.75
2023-05-09T16:09:57.154Z,100638.25
2023-05-09T16:12:42.525Z,100632.13
2023-05-09T16:15:27.974Z,100629.09
2023-05-09T16:18:13.495Z,100635.09
2023-05-09T16:20:59.685Z,100640.44
2023-05-09T16:23:45.793Z,100634.28
2023-05-09T16:26:31.689Z,100633.91
2023-05-09T16:29:17.134Z,100635.84
2023-05-09T16:32:03.082Z,100641.25
2023-05-09T16:34:49.165Z,100658.38
2023-05-09T16:37:35.656Z,100664.31
2023-05-09T16:40:22.179Z,100668.88
2023-05-09T16:43:07.528Z,100683.25
2023-05-09T16:45:53.128Z,100690.31
2023-05-09T16:48:38.448Z,100697.91
2023-05-09T16:51:23.774Z,100706.13
2023-05-09T16:54:09.585Z,100715.84
2023-05-09T16:56:55.110Z,100716.75
2023-05-09T16:59:40.711Z,100721.84
2023-05-09T17:02:26.294Z,100725.88
2023-05-09T17:05:11.622Z,100749.03
2023-05-09T17:07:57.008Z,100764.34
2023-05-09T17:10:42.339Z,100760.50
2023-05-09T17:13:28.396Z,100752.50
2023-05-09T17:16:14.107Z,100754.78
2023-05-09T17:18:59.460Z,100753.69
2023-05-09T17:21:45.003Z,100754.56
2023-05-09T17:24:30.446Z,100747.72
2023-05-09T17:27:15.880Z,100736.56
2023-05-09T17:30:01.150Z,100729.06
2023-05-09T17:32:46.870Z,100746.59
2023-05-09T17:35:32.535Z,100744.00
2023-05-09T17:38:18.061Z,100739.50
2023-05-09T17:41:04.219Z,100748.06
2023-05-09T17:43:51.969Z,100734.56
2023-05-09T17:46:37.290Z,100745.66
2023-05-09T17:49:22.661Z,100718.38
2023-05-09T17:52:08.023Z,100703.94
2023-05-09T17:54:53.612Z,100694.59
2023-05-09T17:57:38.906Z,100697.97
2023-05-09T18:00:24.630Z,100688.00
2023-05-09T18:03:10.372Z,100679.97
2023-05-09T18:05:56.094Z,100683.41
2023-05-09T18:08:41.837Z,100673.13
2023-05-09T18:11:27.330Z,100684.16
2023-05-09T18:14:13.093Z,100677.59
2023-05-09T18:16:58.726Z,100685.63
2023-05-09T18:19:44.023Z,100683.09
2023-05-09T18:22:29.330Z,100689.78
2023-05-09T18:25:14.707Z,100688.41
2023-05-09T18:28:00.191Z,100695.66
2023-05-09T18:30:45.652Z,100692.59
2023-05-09T18:33:31.053Z,100695.53
2023-05-09T18:36:16.319Z,100699.38
2023-05-09T18:39:02.094Z,100700.41
2023-05-09T18:41:47.857Z,100701.41
2023-05-09T18:44:33.756Z,100706.84
2023-05-09T18:47:19.339Z,100698.25
2023-05-09T18:50:07.108Z,100699.44
2023-05-09T18:52:52.374Z,100698.81
2023-05-09T18:55:37.686Z,100712.25
2023-05-09T18:58:24.703Z,100705.53
2023-05-09T19:01:11.671Z,100714.53
2023-05-09T19:03:57.589Z,100711.25
2023-05-09T19:06:44.193Z,100705.38
2023-05-09T19:09:30.722Z,100713.38
2023-05-09T19:12:17.726Z,100714.41
2023-05-09T19:15:03.850Z,100722.34
2023-05-09T19:17:49.635Z,100724.22
2023-05-09T19:20:35.191Z,100715.66
2023-05-09T19:23:21.231Z,100725.41
2023-05-09T19:26:06.535Z,100731.63
2023-05-09T19:28:51.906Z,100726.47
2023-05-09T19:31:37.554Z,100729.13
2023-05-09T19:34:23.169Z,100729.28
2023-05-09T19:37:08.596Z,100740.75
2023-05-09T19:39:53.855Z,100738.19
2023-05-09T19:42:39.622Z,100740.06
2023-05-09T19:45:24.759Z,100734.00
2023-05-09T19:48:15.570Z,100737.56
2023-05-09T19:51:01.020Z,100739.38
2023-05-09T19:53:47.026Z,100744.69
2023-05-09T19:56:32.480Z,100749.09
2023-05-09T19:59:18.260Z,100743.94
2023-05-09T20:02:03.899Z,100744.00
2023-05-09T20:04:50.182Z,100751.06
2023-05-09T20:07:35.967Z,100753.72
2023-05-09T20:10:21.533Z,100753.81
2023-05-09T20:13:07.153Z,100749.50
2023-05-09T20:15:52.592Z,100749.59
2023-05-09T20:18:38.082Z,100751.38
2023-05-09T20:21:23.480Z,100754.91
2023-05-09T20:24:09.064Z,100754.06
2023-05-09T20:26:57.397Z,100764.56
2023-05-09T20:29:43.138Z,100768.06
2023-05-09T20:32:28.452Z,100773.34
2023-05-09T20:35:13.846Z,100783.81
2023-05-09T20:37:59.183Z,100779.44
2023-05-09T20:40:44.898Z,100779.44
2023-05-09T20:43:30.685Z,100786.38
2023-05-09T20:46:16.214Z,100789.00
2023-05-09T20:49:03.282Z,100791.56
2023-05-09T20:51:48.627Z,100788.09
2023-05-09T20:54:33.940Z,100790.66
2023-05-09T20:57:19.291Z,100791.56
2023-05-09T21:00:07.538Z,100788.06
2023-05-09T21:02:57.528Z,100792.41
2023-05-09T21:05:44.555Z,100791.50
2023-05-09T21:08:29.822Z,100791.50
2023-05-09T21:11:15.375Z,100799.34
2023-05-09T21:14:01.117Z,100788.06
2023-05-09T21:16:46.823Z,100792.41
2023-05-09T21:19:32.393Z,100792.41
2023-05-09T21:22:17.956Z,100797.63
2023-05-09T21:25:03.728Z,100796.78
2023-05-09T21:27:49.409Z,100787.19
2023-05-09T21:30:34.644Z,100788.06
2023-05-09T21:33:20.862Z,100781.94
2023-05-09T21:36:07.766Z,100783.69
2023-05-09T21:38:53.251Z,100792.38
2023-05-09T21:41:39.993Z,100788.91
2023-05-09T21:44:25.530Z,100783.75
2023-05-09T21:47:11.760Z,100779.38
2023-05-09T21:49:57.148Z,100779.38
2023-05-09T21:52:42.577Z,100777.63
2023-05-09T21:55:27.937Z,100779.38
2023-05-09T21:58:13.261Z,100775.94
2023-05-09T22:00:58.596Z,100770.72
2023-05-09T22:03:43.963Z,100771.59
2023-05-09T22:06:29.672Z,100766.38
2023-05-09T22:09:15.329Z,100769.84
2023-05-09T22:12:00.726Z,100765.50
2023-05-09T22:14:55.770Z,100762.03
2023-05-09T22:17:41.950Z,100764.63
2023-05-09T22:20:27.416Z,100758.53
2023-05-09T22:23:13.196Z,100760.28
2023-05-09T22:25:58.846Z,100760.31
2023-05-09T22:28:44.081Z,100763.78
2023-05-09T22:31:29.434Z,100757.69
2023-05-09T22:34:15.075Z,100752.50
2023-05-09T22:37:01.281Z,100757.72
2023-05-09T22:39:47.374Z,100755.97
2023-05-09T22:42:34.821Z,100767.28
2023-05-09T22:45:21.021Z,100768.13
2023-05-09T22:48:07.063Z,100767.25
2023-05-09T22:50:52.440Z,100769.00
2023-05-09T22:53:38.027Z,100775.09
2023-05-09T22:56:23.517Z,100779.44
2023-05-09T22:59:08.862Z,100774.22
2023-05-09T23:01:54.484Z,100775.06
2023-05-09T23:04:40.111Z,100781.19
2023-05-09T23:07:25.933Z,100784.63
2023-05-09T23:10:11.709Z,100781.19
2023-05-09T23:12:56.890Z,100788.13
2023-05-09T23:15:42.564Z,100788.13
2023-05-09T23:18:28.715Z,100792.50
2023-05-09T23:21:14.046Z,100792.47
2023-05-09T23:23:59.411Z,100788.97
2023-05-09T23:26:45.144Z,100776.84
2023-05-09T23:29:30.552Z,100779.44
2023-05-09T23:32:15.922Z,100777.69
2023-05-09T23:35:01.282Z,100783.78
2023-05-09T23:37:47.006Z,100776.81
2023-05-09T23:40:32.334Z,100782.03
2023-05-09T23:43:18.192Z,100774.22
2023-05-09T23:46:04.337Z,100772.47
2023-05-09T23:48:50.070Z,100769.88
2023-05-09T23:51:36.380Z,100772.50
2023-05-09T23:54:21.742Z,100772.50
2023-05-09T23:57:07.296Z,100766.38
2023-05-09T23:59:52.868Z,100773.34
